WetterOnline ( https://www.wetteronline.de )

Wetter aktuell Salbitz

Aktuelles Wetter: Oschatz (152m)

6-stündlich | Neueste Meldungen
Ortszeit Temperatur Wetter
Di, 22.06. 2:00 18.7° C bewölkt
Mo, 21.06. 20:00 25.8° C wolkenlos
Mo, 21.06. 14:00 27.4° C leicht bewölkt
Mo, 21.06. 8:00 20.2° C bedeckt
Mo, 21.06. 2:00 22.6° C bedeckt
So, 20.06. 20:00 26.7° C bewölkt
So, 20.06. 14:00 30.5° C bedeckt
So, 20.06. 8:00 24.3° C wolkig
Ortszeit Temperatur Wetter
Di, 22.06. 2:30 17.8° C bewölkt
Di, 22.06. 2:20 17.8° C bewölkt
Di, 22.06. 2:10 18.2° C wolkig
Di, 22.06. 2:00 18.7° C bewölkt
Di, 22.06. 1:50 18.7° C bewölkt
Di, 22.06. 1:40 18.8° C bewölkt
Di, 22.06. 1:30 19.0° C bewölkt
Di, 22.06. 1:00 19.4° C bewölkt
Di, 22.06. 0:30 19.5° C wolkenlos
Di, 22.06. 0:00 20.1° C wolkenlos
Mo, 21.06. 23:30 19.3° C wolkenlos
Ortszeit Relative Feuchte Sichtweite
Di, 22.06. 2:00 84% 27 km
Mo, 21.06. 20:00 58% 60 km
Mo, 21.06. 14:00 54% >70 km
Mo, 21.06. 8:00 87% 35 km
Mo, 21.06. 2:00 78% 30 km
So, 20.06. 20:00 66% 55 km
So, 20.06. 14:00 52% 30 km
So, 20.06. 8:00 71% 30 km
Ortszeit Relative Feuchte Sichtweite
Di, 22.06. 2:30 83% 40 km
Di, 22.06. 2:20 83% -
Di, 22.06. 2:10 85% -
Di, 22.06. 2:00 84% 27 km
Di, 22.06. 1:50 84% -
Di, 22.06. 1:40 87% -
Di, 22.06. 1:30 85% 30 km
Di, 22.06. 1:00 83% 40 km
Di, 22.06. 0:30 80% 60 km
Di, 22.06. 0:00 78% 60 km
Mo, 21.06. 23:30 82% 60 km
Ortszeit Niederschlagsmenge Niederschlagsart
Di, 22.06. 2:00 0.0 l/m2 in 6 Std. -
Mo, 21.06. 20:00 0.0 l/m2 in 12 Std. -
Mo, 21.06. 14:00 0.0 l/m2 in 6 Std. -
Mo, 21.06. 8:00 1 l/m2 in 12 Std. Regen
Mo, 21.06. 2:00 0.1 l/m2 in 6 Std. Regen
So, 20.06. 20:00 0.1 l/m2 in 12 Std. Regen, Niederschlag
So, 20.06. 14:00 0.0 l/m2 in 6 Std. -
So, 20.06. 8:00 0.0 l/m2 in 12 Std. -
Ortszeit Niederschlagsmenge Niederschlagsart
Di, 22.06. 2:30 0.0 l/m2 in 1 Std. -
Di, 22.06. 2:20 keine Meldung -
Di, 22.06. 2:10 keine Meldung -
Di, 22.06. 2:00 0.0 l/m2 in 1 Std. -
Di, 22.06. 1:50 keine Meldung -
Di, 22.06. 1:40 keine Meldung -
Di, 22.06. 1:30 0.0 l/m2 in 1 Std. -
Di, 22.06. 1:00 0.0 l/m2 in 1 Std. -
Di, 22.06. 0:30 0.0 l/m2 in 1 Std. -
Di, 22.06. 0:00 0.0 l/m2 in 1 Std. -
Mo, 21.06. 23:30 0.0 l/m2 in 1 Std. -
Ortszeit Stärke Spitze Richtung
km/h Bft. km/h Grad Sektor
Di, 22.06. 2:00 18 3 25 300° NW
Mo, 21.06. 20:00 14 3 29 310° NW
Mo, 21.06. 14:00 13 3 31 260° W
Mo, 21.06. 8:00 2 1 46 280° W
Mo, 21.06. 2:00 6 1 15 310° NW
So, 20.06. 20:00 4 1 25 210° SW
So, 20.06. 14:00 13 3 33 240° SW
So, 20.06. 8:00 7 2 11 170° S
Ortszeit Stärke Spitze Richtung
km/h Bft. km/h Grad Sektor
Di, 22.06. 2:30 19 3 30 300° NW
Di, 22.06. 2:20 19 3 - 300° NW
Di, 22.06. 2:10 19 3 - 300° NW
Di, 22.06. 2:00 18 3 25 300° NW
Di, 22.06. 1:50 18 3 - 300° NW
Di, 22.06. 1:40 13 3 - 300° NW
Di, 22.06. 1:30 15 3 24 300° NW
Di, 22.06. 1:00 19 3 24 300° NW
Di, 22.06. 0:30 4 1 7 70° O
Di, 22.06. 0:00 4 1 14 160° S
Mo, 21.06. 23:30 7 2 14 320° NW
Ortszeit Untergrenze Bedeckung Gattung
total tief tief mittel hoch
Di, 22.06. 2:00 1500 m 8/8 7/8 - - -
Mo, 21.06. 20:00 - 0/8 0/8 - - -
Mo, 21.06. 14:00 6900 m 4/8 3/8 - - -
Mo, 21.06. 8:00 3900 m 8/8 8/8 - - -
Mo, 21.06. 2:00 3000 m 8/8 8/8 - - -
So, 20.06. 20:00 3900 m 8/8 6/8 - - -
So, 20.06. 14:00 4800 m 8/8 8/8 - - -
So, 20.06. 8:00 7200 m 7/8 0/8 - - -
Ortszeit Bedeckungsgrad in Achtel und Wolkenuntergrenze
Di, 22.06. 2:30 4(2100m) 8(7200m) 8(9000m)
Di, 22.06. 2:20 4(2100m) 8(7200m) 8(9000m)
Di, 22.06. 2:10 1(1500m) 8(7200m) 8(7800m)
Di, 22.06. 2:00 7(1500m) 8(7500m) 8(7800m)
Di, 22.06. 1:50 7(1500m) 8(7500m) 8(7800m)
Di, 22.06. 1:40 7(1500m) 8(7800m) 8(9000m)
Di, 22.06. 1:30 6(1500m) 8(9000m) 8(10500m)
Di, 22.06. 1:00 5(1500m) 7(9000m) 8(9000m)
Di, 22.06. 0:30 1(1500m) 4(9000m) 4(9000m)
Di, 22.06. 0:00 keine Wolken
Mo, 21.06. 23:30 keine Wolken
Ortszeit Luftdruck NN (hPa) Tendenz (hPa in 3 Std.)
Di, 22.06. 2:00 1010 + 1,6
Mo, 21.06. 20:00 1007 + 0,6
Mo, 21.06. 14:00 1007 - 0,1
Mo, 21.06. 8:00 1006 + 0,3
Mo, 21.06. 2:00 1005 - 1,6
So, 20.06. 20:00 1008 - 0,3
So, 20.06. 14:00 1009 - 0,7
So, 20.06. 8:00 1010 - 0,8
Ortszeit Luftdruck NN (hPa) Tendenz (hPa in 3 Std.)
Di, 22.06. 2:30 1010 + 1,9
Di, 22.06. 2:20 1010 keine Meldung
Di, 22.06. 2:10 1010 keine Meldung
Di, 22.06. 2:00 1010 + 1,6
Di, 22.06. 1:50 1010 keine Meldung
Di, 22.06. 1:40 1010 keine Meldung
Di, 22.06. 1:30 1010 + 1,8
Di, 22.06. 1:00 1010 + 1,4
Di, 22.06. 0:30 1009 + 0,5
Di, 22.06. 0:00 1008 + 0,5
Mo, 21.06. 23:30 1008 + 0,4
Ortszeit Schneehöhe (cm)
Di, 22.06. 2:00 -
Mo, 21.06. 20:00 -
Mo, 21.06. 14:00 -
Mo, 21.06. 8:00 -
Mo, 21.06. 2:00 -
So, 20.06. 20:00 -
So, 20.06. 14:00 -
So, 20.06. 8:00 -
Ortszeit Schneehöhe (cm)
Di, 22.06. 2:30 -
Di, 22.06. 2:20 -
Di, 22.06. 2:10 -
Di, 22.06. 2:00 -
Di, 22.06. 1:50 -
Di, 22.06. 1:40 -
Di, 22.06. 1:30 -
Di, 22.06. 1:00 -
Di, 22.06. 0:30 -
Di, 22.06. 0:00 -
Mo, 21.06. 23:30 -
Link zu dieser Seite / Seite empfehlen

Das Wetter in ...